createdAt,value
2023-04-14T00:01:59.954Z,6.42
2023-04-14T00:04:28.586Z,6.35
2023-04-14T00:06:58.709Z,6.24
2023-04-14T00:09:27.265Z,6.13
2023-04-14T00:11:56.576Z,6.21
2023-04-14T00:14:25.131Z,6.23
2023-04-14T00:16:53.610Z,6.23
2023-04-14T00:19:23.462Z,6.30
2023-04-14T00:21:52.695Z,6.13
2023-04-14T00:24:21.119Z,6.16
2023-04-14T00:26:49.617Z,6.25
2023-04-14T00:29:17.999Z,6.30
2023-04-14T00:31:46.411Z,6.22
2023-04-14T00:34:14.792Z,6.22
2023-04-14T00:36:44.550Z,6.20
2023-04-14T00:39:12.963Z,6.26
2023-04-14T00:41:43.207Z,6.21
2023-04-14T00:44:11.685Z,6.13
2023-04-14T00:46:41.868Z,6.01
2023-04-14T00:49:11.369Z,6.04
2023-04-14T00:51:39.994Z,6.03
2023-04-14T00:54:11.495Z,5.97
2023-04-14T00:56:40.536Z,6.03
2023-04-14T00:59:10.168Z,5.95
2023-04-14T01:01:38.829Z,5.84
2023-04-14T01:04:08.717Z,5.90
2023-04-14T01:06:37.785Z,5.92
2023-04-14T01:09:07.093Z,5.83
2023-04-14T01:11:49.848Z,5.86
2023-04-14T01:14:33.725Z,5.86
2023-04-14T01:17:09.271Z,5.78
2023-04-14T01:19:59.384Z,5.72
2023-04-14T01:22:33.515Z,5.74
2023-04-14T01:25:27.442Z,5.75
2023-04-14T01:28:15.534Z,5.79
2023-04-14T01:31:01.727Z,5.77
2023-04-14T01:33:35.558Z,5.76
2023-04-14T01:36:09.196Z,5.76
2023-04-14T01:38:40.436Z,5.74
2023-04-14T01:41:11.253Z,5.67
2023-04-14T01:43:45.016Z,5.79
2023-04-14T01:46:17.110Z,5.74
2023-04-14T01:48:47.617Z,5.71
2023-04-14T01:51:19.408Z,5.74
2023-04-14T01:53:50.980Z,5.66
2023-04-14T01:56:20.961Z,5.64
2023-04-14T01:58:50.643Z,5.61
2023-04-14T02:01:20.015Z,5.55
2023-04-14T02:03:51.214Z,5.54
2023-04-14T02:06:21.622Z,5.43
2023-04-14T02:08:51.014Z,5.42
2023-04-14T02:11:20.395Z,5.36
2023-04-14T02:13:50.075Z,5.28
2023-04-14T02:16:20.027Z,5.20
2023-04-14T02:18:50.808Z,5.16
2023-04-14T02:21:21.896Z,5.14
2023-04-14T02:23:50.307Z,5.17
2023-04-14T02:26:23.228Z,5.26
2023-04-14T02:28:59.748Z,5.64
2023-04-14T02:31:31.493Z,5.71
2023-04-14T02:34:03.445Z,6.19
2023-04-14T02:36:40.894Z,6.32
2023-04-14T02:39:17.780Z,6.02
2023-04-14T02:41:48.218Z,5.94
2023-04-14T02:44:24.255Z,5.97
2023-04-14T02:47:03.825Z,6.04
2023-04-14T02:49:39.418Z,6.08
2023-04-14T02:52:11.922Z,5.72
2023-04-14T02:54:43.419Z,5.36
2023-04-14T02:57:13.508Z,5.17
2023-04-14T02:59:47.146Z,5.16
2023-04-14T03:02:18.903Z,5.05
2023-04-14T03:04:55.129Z,4.86
2023-04-14T03:07:44.934Z,4.76
2023-04-14T03:10:16.820Z,4.81
2023-04-14T03:12:48.200Z,4.84
2023-04-14T03:15:18.512Z,4.84
2023-04-14T03:17:54.165Z,4.87
2023-04-14T03:20:24.756Z,4.89
2023-04-14T03:23:01.078Z,4.91
2023-04-14T03:25:35.075Z,4.92
2023-04-14T03:28:05.504Z,4.86
2023-04-14T03:30:36.129Z,4.82
2023-04-14T03:33:10.112Z,4.85
2023-04-14T03:35:40.500Z,4.84
2023-04-14T03:38:11.132Z,4.82
2023-04-14T03:40:41.366Z,4.90
2023-04-14T03:43:12.755Z,4.92
2023-04-14T03:45:44.339Z,4.96
2023-04-14T03:48:17.199Z,5.03
2023-04-14T03:50:52.775Z,4.93
2023-04-14T03:53:23.220Z,4.91
2023-04-14T03:55:54.177Z,4.90
2023-04-14T03:58:23.639Z,5.04
2023-04-14T04:00:55.086Z,5.02
2023-04-14T04:03:24.574Z,5.02
2023-04-14T04:05:55.417Z,4.98
2023-04-14T04:08:25.055Z,5.03
2023-04-14T04:10:55.572Z,5.08
2023-04-14T04:13:26.466Z,5.21
2023-04-14T04:15:55.704Z,5.25
2023-04-14T04:18:27.271Z,5.19
2023-04-14T04:20:59.206Z,5.21
2023-04-14T04:23:31.806Z,5.31
2023-04-14T04:26:00.682Z,5.38
2023-04-14T04:28:35.204Z,5.38
2023-04-14T04:31:06.356Z,5.31
2023-04-14T04:33:36.685Z,5.30
2023-04-14T04:36:08.355Z,5.20
2023-04-14T04:38:43.105Z,5.14
2023-04-14T04:41:22.952Z,5.14
2023-04-14T04:43:53.026Z,5.13
2023-04-14T04:46:44.289Z,5.04
2023-04-14T04:49:13.281Z,5.02
2023-04-14T04:51:43.112Z,4.97
2023-04-14T04:54:11.729Z,4.94
2023-04-14T04:56:40.084Z,5.02
2023-04-14T04:59:08.747Z,5.12
2023-04-14T05:01:37.134Z,5.21
2023-04-14T05:04:05.636Z,5.17
2023-04-14T05:06:37.505Z,5.08
2023-04-14T05:09:07.825Z,5.10
2023-04-14T05:11:36.498Z,4.85
2023-04-14T05:14:05.357Z,4.81
2023-04-14T05:16:33.901Z,4.68
2023-04-14T05:19:03.271Z,4.77
2023-04-14T05:21:31.766Z,4.77
2023-04-14T05:24:00.503Z,4.59
2023-04-14T05:26:51.847Z,4.72
2023-04-14T05:29:19.613Z,4.69
2023-04-14T05:31:48.364Z,4.67
2023-04-14T05:34:17.041Z,4.81
2023-04-14T05:36:45.522Z,4.92
2023-04-14T05:39:14.533Z,5.00
2023-04-14T05:41:44.257Z,5.15
2023-04-14T05:44:12.659Z,5.12
2023-04-14T05:46:41.389Z,5.16
2023-04-14T05:49:09.963Z,5.22
2023-04-14T05:51:38.345Z,5.09
2023-04-14T05:54:07.192Z,4.92
2023-04-14T05:56:36.260Z,5.01
2023-04-14T05:59:05.990Z,4.83
2023-04-14T06:01:34.396Z,4.91
2023-04-14T06:04:04.006Z,4.93
2023-04-14T06:06:33.596Z,5.09
2023-04-14T06:09:02.222Z,5.10
2023-04-14T06:11:30.713Z,5.15
2023-04-14T06:14:02.004Z,5.29
2023-04-14T06:16:32.018Z,5.25
2023-04-14T06:19:00.879Z,5.21
2023-04-14T06:21:29.638Z,5.27
2023-04-14T06:23:57.982Z,5.34
2023-04-14T06:26:27.027Z,5.35
2023-04-14T06:28:57.354Z,5.27
2023-04-14T06:31:25.812Z,5.38
2023-04-14T06:33:55.584Z,5.32
2023-04-14T06:36:24.077Z,5.33
2023-04-14T06:38:52.420Z,5.28
2023-04-14T06:41:21.074Z,5.21
2023-04-14T06:43:49.520Z,5.31
2023-04-14T06:46:18.182Z,5.26
2023-04-14T06:48:46.762Z,5.32
2023-04-14T06:51:16.626Z,5.23
2023-04-14T06:53:45.115Z,5.32
2023-04-14T06:56:13.509Z,5.35
2023-04-14T06:58:41.822Z,5.22
2023-04-14T07:01:10.327Z,5.27
2023-04-14T07:03:39.672Z,5.33
2023-04-14T07:06:11.807Z,5.37
2023-04-14T07:08:41.836Z,5.51
2023-04-14T07:11:12.450Z,5.55
2023-04-14T07:13:41.896Z,5.49
2023-04-14T07:16:10.451Z,5.42
2023-04-14T07:18:38.867Z,5.49
2023-04-14T07:21:07.443Z,5.47
2023-04-14T07:23:35.811Z,5.47
2023-04-14T07:26:06.134Z,5.69
2023-04-14T07:28:35.469Z,5.79
2023-04-14T07:31:10.206Z,5.95
2023-04-14T07:33:38.712Z,5.83
2023-04-14T07:36:08.097Z,6.12
2023-04-14T07:38:37.182Z,6.15
2023-04-14T07:41:08.505Z,5.85
2023-04-14T07:43:37.003Z,5.81
2023-04-14T07:46:06.711Z,5.67
2023-04-14T07:48:36.921Z,5.77
2023-04-14T07:51:06.293Z,5.85
2023-04-14T07:53:40.430Z,5.75
2023-04-14T07:56:10.691Z,5.88
2023-04-14T07:58:40.182Z,6.08
2023-04-14T08:01:08.955Z,6.50
2023-04-14T08:03:38.156Z,6.64
2023-04-14T08:06:07.501Z,6.78
2023-04-14T08:08:36.125Z,6.80
2023-04-14T08:11:04.571Z,6.91
2023-04-14T08:13:34.549Z,7.10
2023-04-14T08:16:03.111Z,7.17
2023-04-14T08:18:31.857Z,7.33
2023-04-14T08:21:00.337Z,7.62
2023-04-14T08:23:28.756Z,8.22
2023-04-14T08:25:57.149Z,8.50
2023-04-14T08:28:25.826Z,8.60
2023-04-14T08:30:55.666Z,8.59
2023-04-14T08:33:24.041Z,8.87
2023-04-14T08:35:56.370Z,8.82
2023-04-14T08:38:28.993Z,8.98
2023-04-14T08:40:58.617Z,9.11
2023-04-14T08:43:27.020Z,9.01
2023-04-14T08:45:58.701Z,8.82
2023-04-14T08:48:33.004Z,9.27
2023-04-14T08:51:08.792Z,9.36
2023-04-14T08:53:43.004Z,9.64
2023-04-14T08:56:14.260Z,10.74
2023-04-14T08:58:43.107Z,11.16
2023-04-14T09:01:13.300Z,11.13
2023-04-14T09:03:42.574Z,11.71
2023-04-14T09:06:11.119Z,12.37
2023-04-14T09:08:39.732Z,12.84
2023-04-14T09:11:08.342Z,12.39
2023-04-14T09:13:38.118Z,12.65
2023-04-14T09:16:07.989Z,12.92
2023-04-14T09:18:37.800Z,13.40
2023-04-14T09:21:30.029Z,13.33
2023-04-14T09:23:58.036Z,13.53
2023-04-14T09:26:28.448Z,13.79
2023-04-14T09:28:56.756Z,14.04
2023-04-14T09:31:26.036Z,13.44
2023-04-14T09:33:55.943Z,13.48
2023-04-14T09:36:26.096Z,13.58
2023-04-14T09:38:54.673Z,13.49
2023-04-14T09:41:26.112Z,13.99
2023-04-14T09:43:54.613Z,14.31
2023-04-14T09:46:22.983Z,14.26
2023-04-14T09:48:53.997Z,14.54
2023-04-14T09:51:30.232Z,14.91
2023-04-14T09:54:05.054Z,14.56
2023-04-14T09:56:33.980Z,14.23
2023-04-14T09:59:03.753Z,14.55
2023-04-14T10:01:34.832Z,14.70
2023-04-14T10:04:03.803Z,15.20
2023-04-14T10:06:33.722Z,15.46
2023-04-14T10:09:03.166Z,15.44
2023-04-14T10:11:33.509Z,15.26
2023-04-14T10:14:04.735Z,15.25
2023-04-14T10:16:34.113Z,15.48
2023-04-14T10:19:03.726Z,15.50
2023-04-14T10:21:34.222Z,15.47
2023-04-14T10:24:03.370Z,15.47
2023-04-14T10:26:31.802Z,15.73
2023-04-14T10:29:02.569Z,15.80
2023-04-14T10:31:35.824Z,16.04
2023-04-14T10:34:10.814Z,15.43
2023-04-14T10:36:41.600Z,15.78
2023-04-14T10:39:12.632Z,15.54
2023-04-14T10:41:48.847Z,15.98
2023-04-14T10:44:28.426Z,15.90
2023-04-14T10:46:57.979Z,15.88
2023-04-14T10:49:31.340Z,16.10
2023-04-14T10:52:02.553Z,16.27
2023-04-14T10:54:50.811Z,16.21
2023-04-14T10:57:20.612Z,16.02
2023-04-14T10:59:49.321Z,15.35
2023-04-14T11:02:28.930Z,15.68
2023-04-14T11:05:08.424Z,15.45
2023-04-14T11:07:46.014Z,15.84
2023-04-14T11:10:33.146Z,15.21
2023-04-14T11:13:07.299Z,15.03
2023-04-14T11:15:51.827Z,14.85
2023-04-14T11:18:33.052Z,15.19
2023-04-14T11:21:06.229Z,15.12
2023-04-14T11:23:37.397Z,15.17
2023-04-14T11:26:08.208Z,15.44
2023-04-14T11:28:38.058Z,15.58
2023-04-14T11:31:09.158Z,15.39
2023-04-14T11:33:39.853Z,15.80
2023-04-14T11:36:10.667Z,15.83
2023-04-14T11:38:41.398Z,15.13
2023-04-14T11:41:10.461Z,15.42
2023-04-14T11:43:39.308Z,15.03
2023-04-14T11:46:08.996Z,15.15
2023-04-14T11:48:38.175Z,15.07
2023-04-14T11:51:07.091Z,15.24
2023-04-14T11:53:35.454Z,15.12
2023-04-14T11:56:08.763Z,15.01
2023-04-14T11:58:37.243Z,15.49
2023-04-14T12:01:05.943Z,15.75
2023-04-14T12:03:35.741Z,15.89
2023-04-14T12:06:04.731Z,16.29
2023-04-14T12:08:34.041Z,16.18
2023-04-14T12:11:15.028Z,16.34
2023-04-14T12:13:44.350Z,16.47
2023-04-14T12:16:13.565Z,16.57
2023-04-14T12:18:42.408Z,16.47
2023-04-14T12:21:12.347Z,16.56
2023-04-14T12:23:41.463Z,16.45
2023-04-14T12:26:12.988Z,16.22
2023-04-14T12:28:43.049Z,16.26
2023-04-14T12:31:12.263Z,16.54
2023-04-14T12:33:40.810Z,16.70
2023-04-14T12:36:13.534Z,16.16
2023-04-14T12:38:41.986Z,16.32
2023-04-14T12:41:10.941Z,16.28
2023-04-14T12:43:41.856Z,16.06
2023-04-14T12:46:10.706Z,16.20
2023-04-14T12:48:58.657Z,16.10
2023-04-14T12:51:27.036Z,15.87
2023-04-14T12:54:09.055Z,16.12
2023-04-14T12:56:43.428Z,15.99
2023-04-14T12:59:14.628Z,16.07
2023-04-14T13:01:43.006Z,16.11
2023-04-14T13:04:11.773Z,15.83
2023-04-14T13:06:40.198Z,15.58
2023-04-14T13:09:08.511Z,15.68
2023-04-14T13:11:36.834Z,15.78
2023-04-14T13:14:05.154Z,15.81
2023-04-14T13:16:34.906Z,15.62
2023-04-14T13:19:03.645Z,15.43
2023-04-14T13:21:32.636Z,15.32
2023-04-14T13:24:01.144Z,15.00
2023-04-14T13:26:29.462Z,15.16
2023-04-14T13:28:57.790Z,15.24
2023-04-14T13:31:26.193Z,15.12
2023-04-14T13:33:56.259Z,15.03
2023-04-14T13:36:24.669Z,15.09
2023-04-14T13:38:53.008Z,15.20
2023-04-14T13:41:21.367Z,14.88
2023-04-14T13:43:49.944Z,15.13
2023-04-14T13:46:19.261Z,15.21
2023-04-14T13:48:48.094Z,15.40
2023-04-14T13:51:18.357Z,15.25
2023-04-14T13:53:47.649Z,15.33
2023-04-14T13:56:16.006Z,15.38
2023-04-14T13:58:44.386Z,15.45
2023-04-14T14:01:14.051Z,15.40
2023-04-14T14:03:42.952Z,15.46
2023-04-14T14:06:11.644Z,15.45
2023-04-14T14:08:42.477Z,15.37
2023-04-14T14:11:11.608Z,15.40
2023-04-14T14:13:40.771Z,15.22
2023-04-14T14:16:10.638Z,15.09
2023-04-14T14:18:40.279Z,15.15
2023-04-14T14:21:08.764Z,15.01
2023-04-14T14:23:37.348Z,15.11
2023-04-14T14:26:07.132Z,15.05
2023-04-14T14:28:35.415Z,15.04
2023-04-14T14:31:05.629Z,14.82
2023-04-14T14:33:35.353Z,14.69
2023-04-14T14:36:03.818Z,14.69
2023-04-14T14:38:32.638Z,14.66
2023-04-14T14:41:01.257Z,14.88
2023-04-14T14:43:31.014Z,14.77
2023-04-14T14:46:01.469Z,14.88
2023-04-14T14:48:29.979Z,14.77
2023-04-14T14:50:58.406Z,14.67
2023-04-14T14:53:31.834Z,14.76
2023-04-14T14:56:00.631Z,14.85
2023-04-14T14:58:30.695Z,14.76
2023-04-14T15:00:59.150Z,14.55
2023-04-14T15:03:27.598Z,14.42
2023-04-14T15:05:56.300Z,14.48
2023-04-14T15:08:24.864Z,14.62
2023-04-14T15:10:53.511Z,14.74
2023-04-14T15:13:22.032Z,14.30
2023-04-14T15:15:51.952Z,14.21
2023-04-14T15:18:21.068Z,14.06
2023-04-14T15:20:49.511Z,14.04
2023-04-14T15:23:17.839Z,14.08
2023-04-14T15:25:46.408Z,14.08
2023-04-14T15:28:15.061Z,14.05
2023-04-14T15:30:43.517Z,14.09
2023-04-14T15:33:13.326Z,13.95
2023-04-14T15:35:42.227Z,13.85
2023-04-14T15:38:10.688Z,13.85
2023-04-14T15:40:43.121Z,13.69
2023-04-14T15:43:12.287Z,13.68
2023-04-14T15:45:41.640Z,13.64
2023-04-14T15:48:10.194Z,13.74
2023-04-14T15:50:44.479Z,13.83
2023-04-14T15:53:13.532Z,13.73
2023-04-14T15:55:41.890Z,13.59
2023-04-14T15:58:10.368Z,13.59
2023-04-14T16:00:39.021Z,13.54
2023-04-14T16:03:07.547Z,13.55
2023-04-14T16:05:36.123Z,13.44
2023-04-14T16:08:05.971Z,13.45
2023-04-14T16:10:34.403Z,13.43
2023-04-14T16:13:02.719Z,13.43
2023-04-14T16:15:31.337Z,13.42
2023-04-14T16:18:00.020Z,13.30
2023-04-14T16:20:28.688Z,13.25
2023-04-14T16:22:57.101Z,13.26
2023-04-14T16:25:27.744Z,13.27
2023-04-14T16:27:56.153Z,13.29
2023-04-14T16:30:24.615Z,13.21
2023-04-14T16:32:53.026Z,13.21
2023-04-14T16:35:21.551Z,13.16
2023-04-14T16:37:49.868Z,13.14
2023-04-14T16:40:18.457Z,13.16
2023-04-14T16:42:48.912Z,13.24
2023-04-14T16:45:18.601Z,13.23
2023-04-14T16:47:47.504Z,13.26
2023-04-14T16:50:16.141Z,13.29
2023-04-14T16:52:44.672Z,13.36
2023-04-14T16:55:15.750Z,13.40
2023-04-14T16:57:44.228Z,13.54
2023-04-14T17:00:16.570Z,13.53
2023-04-14T17:02:45.043Z,13.45
2023-04-14T17:05:16.099Z,13.54
2023-04-14T17:07:45.085Z,13.50
2023-04-14T17:10:14.126Z,13.56
2023-04-14T17:12:43.116Z,13.55
2023-04-14T17:15:13.233Z,13.62
2023-04-14T17:17:42.998Z,13.45
2023-04-14T17:20:14.939Z,13.40
2023-04-14T17:22:43.733Z,13.38
2023-04-14T17:25:13.790Z,13.51
2023-04-14T17:27:42.243Z,13.53
2023-04-14T17:30:12.096Z,13.62
2023-04-14T17:32:42.804Z,13.61
2023-04-14T17:35:12.215Z,13.65
2023-04-14T17:37:40.780Z,13.55
2023-04-14T17:40:10.795Z,13.38
2023-04-14T17:42:39.197Z,13.19
2023-04-14T17:45:09.873Z,13.14
2023-04-14T17:47:39.838Z,13.10
2023-04-14T17:50:11.097Z,13.02
2023-04-14T17:52:39.787Z,12.98
2023-04-14T17:55:10.497Z,12.96
2023-04-14T17:57:39.581Z,12.95
2023-04-14T18:00:10.981Z,12.89
2023-04-14T18:02:42.551Z,12.82
2023-04-14T18:05:13.219Z,12.79
2023-04-14T18:07:43.373Z,12.74
2023-04-14T18:10:12.157Z,12.73
2023-04-14T18:12:40.718Z,12.64
2023-04-14T18:15:12.004Z,12.65
2023-04-14T18:17:41.238Z,12.62
2023-04-14T18:20:13.759Z,12.56
2023-04-14T18:22:43.343Z,12.56
2023-04-14T18:25:11.734Z,12.52
2023-04-14T18:30:12.220Z,12.43
2023-04-14T18:32:40.755Z,12.38
2023-04-14T18:35:11.863Z,12.38
2023-04-14T18:37:40.350Z,12.33
2023-04-14T18:40:10.501Z,12.27
2023-04-14T18:42:38.999Z,12.25
2023-04-14T18:45:09.756Z,12.21
2023-04-14T18:47:38.219Z,12.13
2023-04-14T18:50:09.352Z,12.10
2023-04-14T18:52:39.044Z,11.99
2023-04-14T18:55:09.514Z,11.97
2023-04-14T18:57:38.205Z,11.92
2023-04-14T19:00:09.088Z,11.90
2023-04-14T19:02:38.615Z,11.85
2023-04-14T19:05:09.881Z,11.85
2023-04-14T19:07:39.674Z,11.80
2023-04-14T19:10:10.263Z,11.76
2023-04-14T19:12:40.531Z,11.70
2023-04-14T19:15:10.309Z,11.70
2023-04-14T19:17:39.076Z,11.67
2023-04-14T19:20:09.361Z,11.62
2023-04-14T19:22:39.222Z,11.60
2023-04-14T19:25:09.394Z,11.57
2023-04-14T19:27:38.645Z,11.56
2023-04-14T19:30:08.902Z,11.53
2023-04-14T19:32:37.552Z,11.52
2023-04-14T19:35:07.720Z,11.51
2023-04-14T19:37:36.504Z,11.39
2023-04-14T19:40:08.314Z,11.27
2023-04-14T19:42:36.747Z,11.22
2023-04-14T19:45:07.882Z,11.17
2023-04-14T19:47:36.464Z,11.16
2023-04-14T19:50:05.491Z,11.04
2023-04-14T19:52:33.940Z,10.94
2023-04-14T19:55:02.715Z,10.90
2023-04-14T19:57:33.252Z,10.77
2023-04-14T20:00:02.048Z,10.73
2023-04-14T20:02:42.126Z,10.67
2023-04-14T20:05:11.414Z,10.68
2023-04-14T20:07:39.976Z,10.71
2023-04-14T20:10:10.301Z,10.71
2023-04-14T20:12:40.411Z,10.61
2023-04-14T20:15:10.588Z,10.65
2023-04-14T20:17:38.961Z,10.59
2023-04-14T20:20:09.441Z,10.62
2023-04-14T20:22:38.058Z,10.56
2023-04-14T20:25:07.800Z,10.62
2023-04-14T20:27:36.187Z,10.57
2023-04-14T20:30:07.539Z,10.55
2023-04-14T20:32:36.379Z,10.53
2023-04-14T20:35:05.632Z,10.53
2023-04-14T20:37:33.982Z,10.54
2023-04-14T20:40:02.594Z,10.54
2023-04-14T20:42:31.033Z,10.52
2023-04-14T20:44:59.606Z,10.49
2023-04-14T20:47:29.526Z,10.48
2023-04-14T20:49:57.896Z,10.40
2023-04-14T20:52:28.112Z,10.41
2023-04-14T20:54:56.657Z,10.25
2023-04-14T20:57:25.006Z,10.40
2023-04-14T20:59:53.364Z,10.37
2023-04-14T21:02:22.497Z,10.34
2023-04-14T21:04:52.557Z,10.32
2023-04-14T21:07:21.380Z,10.33
2023-04-14T21:09:49.728Z,10.32
2023-04-14T21:12:22.216Z,10.25
2023-04-14T21:15:31.332Z,10.27
2023-04-14T21:17:42.412Z,10.14
2023-04-14T21:20:14.806Z,10.18
2023-04-14T21:22:43.626Z,10.18
2023-04-14T21:25:12.155Z,10.08
2023-04-14T21:27:41.194Z,9.98
2023-04-14T21:30:10.836Z,9.83
2023-04-14T21:32:39.920Z,9.92
2023-04-14T21:35:09.980Z,9.92
2023-04-14T21:37:40.005Z,9.89
2023-04-14T21:40:11.187Z,9.88
2023-04-14T21:42:39.618Z,9.79
2023-04-14T21:45:09.739Z,9.65
2023-04-14T21:47:38.704Z,9.52
2023-04-14T21:50:09.629Z,9.59
2023-04-14T21:52:39.991Z,9.34
2023-04-14T21:55:10.497Z,9.36
2023-04-14T21:57:48.943Z,9.39
2023-04-14T22:00:18.558Z,9.40
2023-04-14T22:02:48.045Z,9.45
2023-04-14T22:05:17.445Z,9.39
2023-04-14T22:07:47.801Z,9.41
2023-04-14T22:10:16.418Z,9.38
2023-04-14T22:12:52.080Z,9.34
2023-04-14T22:15:20.822Z,9.25
2023-04-14T22:17:49.353Z,9.37
2023-04-14T22:20:18.236Z,9.37
2023-04-14T22:22:48.558Z,9.30
2023-04-14T22:25:18.945Z,9.25
2023-04-14T22:27:47.304Z,9.22
2023-04-14T22:30:15.986Z,9.16
2023-04-14T22:32:44.393Z,9.21
2023-04-14T22:35:12.841Z,9.15
2023-04-14T22:37:41.223Z,9.13
2023-04-14T22:40:12.133Z,8.99
2023-04-14T22:42:40.753Z,8.98
2023-04-14T22:45:11.073Z,8.91
2023-04-14T22:47:42.158Z,8.90
2023-04-14T22:50:11.334Z,8.99
2023-04-14T22:52:39.768Z,8.94
2023-04-14T22:55:10.709Z,8.91
2023-04-14T22:57:39.368Z,8.87
2023-04-14T23:00:11.636Z,8.81
2023-04-14T23:02:42.214Z,8.83
2023-04-14T23:05:11.616Z,8.82
2023-04-14T23:07:40.368Z,8.81
2023-04-14T23:10:11.938Z,8.80
2023-04-14T23:12:40.368Z,8.80
2023-04-14T23:15:09.773Z,8.82
2023-04-14T23:17:38.135Z,8.85
2023-04-14T23:20:08.162Z,8.85
2023-04-14T23:22:38.650Z,8.86
2023-04-14T23:25:09.219Z,8.84
2023-04-14T23:27:38.926Z,8.80
2023-04-14T23:30:10.300Z,8.76
2023-04-14T23:32:38.755Z,8.78
2023-04-14T23:35:09.374Z,8.77
2023-04-14T23:37:38.855Z,8.77
2023-04-14T23:40:09.126Z,8.75
2023-04-14T23:42:38.908Z,8.69
2023-04-14T23:45:09.428Z,8.69
2023-04-14T23:47:38.088Z,8.62
2023-04-14T23:50:08.601Z,8.57
2023-04-14T23:52:37.024Z,8.54
2023-04-14T23:55:06.174Z,8.46
2023-04-14T23:57:34.556Z,8.44
